ラロトンガ の空港の天気 - METARとTAF

ラロトンガ国際空港 ( NCRG / RAR ) - クック諸島 アバルア (ラロトンガ島)
飛行場実況気象(Metar)
観測時間10/22 01:30 CKT (10/22 11:30 UTC)
風向・風速東南東 2m/s
視程10km以上
天気現象弱い雨
少しの雲 雲底高度 240m
全天の8割程度の雲 雲底高度 490m
全天を覆う雲 雲底高度 910m
気温23℃
湿度94%
気圧1015hPa
METARNCRG 221130Z AUTO 11004KT 070V160 9999 -RA FEW008/// BKN016/// OVC030/// 23/22 Q1015
過去の天気等 Google飛行場航空写真 Wunderground天気予報

過去48時間のMETAR

飛行場予報(TAF)
発表時間: 10/22 01:10 CKT (10/22 11:10 UTC)
予報対象時間: 22日1時 CKT ~ 22日20時 CKT
風向・風速東南東 4m/s
視程10km以上
天気現象弱い雨
全天の4割程度の雲 雲底高度 430m
全天の8割程度の雲 雲底高度 580m
全天を覆う雲 雲底高度 760m
22日1時 CKT ~ 22日14時 CKT に 確率 40% で一時的に
視程5000m
天気現象しゅう雨
全天の8割程度の雲 雲底高度 460m
22日8時 CKT ~ 22日14時 CKT に 確率 40% で一時的に
風向・風速東南東 8m/s 瞬間風速 13m/s
22日14時 CKT ~ 22日20時 CKT に 確率 30% で一時的に
視程5000m
天気現象しゅう雨
全天の8割程度の雲 雲底高度 460m
TAF AMD NCRG 221110Z 2211/2306 11007KT 9999 -RA SCT014 BKN019 OVC025
PROB40 TEMPO 2211/2224 5000 SHRA BKN015
PROB40 TEMPO 2218/2224 12015G25KT
PROB30 TEMPO 2300/2306 5000 SHRA BKN015